Centerville, Florida
Current Conditions -  °F | °C
As of 11:53 AM on Tuesday 21 Oct 2014 (Local Time) from KTLH Reporting Station
Few Clouds Few Clouds  
Wind Chill: 78°   Ceiling: Unl
Heat Index: 79°   Visibility: 10mi
Dew Point: 54°   Wind: 5mph
Humidity: 43%   Direction: NA
Pressure: 30.01"   Gusts: NA
Location:  30.5947°N, 84.0417°W
Report Text: KTLH 211553Z VRB04KT 10SM FEW250 26/12 A3001 RMK AO2 SLP162 T02560122 $
Loading
Personal Weather Stations






























Interactive Weather Map
Tropical Storm Tracking
New forecast layout! Learn more

10-Day Weather Forecast

Advertisements
Track Severe Weather on mobile